Time;durP1;ratioP1;P1;durP2;ratioP2;P2;SDS_P1;SDS_P2;PMS_P1;PMS_P2;Temp;Humidity;BMP_temperature;BMP_pressure;BME280_temperature;BME280_humidity;BME280_pressure;Samples;Min_cycle;Max_cycle;Signal;HPM_P1;HPM_P2
2024/01/10 00:01:37;;;;;;;;;;;;;;;24.79;37.83;94610.19;4912944;29;7194;-35
2024/01/10 00:04:16;;;;;;;;;;;;;;;24.79;37.58;94604.69;4911250;29;7164;-35
2024/01/10 00:06:43;;;;;;;;;;;;;;;24.81;37.86;94598.66;4915795;29;6980;-36
2024/01/10 00:09:13;;;;;;;;;;;;;;;24.76;37.45;94591.91;4943601;28;6979;-35
2024/01/10 00:11:44;;;;;;;;;;;;;;;24.79;37.31;94603.94;4951104;28;8831;-36
2024/01/10 00:14:11;;;;;;;;;;;;;;;24.80;38.03;94603.41;4959962;28;7086;-35
2024/01/10 00:16:38;;;;;;;;;;;;;;;24.81;37.82;94590.41;4940715;28;7210;-35
2024/01/10 00:19:04;;;;;;;;;;;;;;;24.81;37.82;94582.91;4956412;28;7257;-36
2024/01/10 00:21:30;;;;;;;;;;;;;;;24.80;38.06;94577.91;4955123;28;7499;-36
2024/01/10 00:24:07;;;;;;;;;;;;;;;24.81;37.35;94584.91;4948562;28;9033;-36
2024/01/10 00:26:35;;;;;;;;;;;;;;;24.80;36.79;94581.41;4940888;28;7207;-35
2024/01/10 00:29:11;;;;;;;;;;;;;;;24.81;37.10;94585.66;4971207;28;8289;-35
2024/01/10 00:31:44;;;;;;;;;;;;;;;24.82;37.00;94583.66;4995265;28;7332;-36
2024/01/10 00:34:09;;;;;;;;;;;;;;;24.80;37.80;94569.66;4998720;28;7265;-36
2024/01/10 00:36:35;;;;;;;;;;;;;;;24.79;37.32;94570.91;5006150;28;7173;-57
2024/01/10 00:39:06;;;;;;;;;;;;;;;24.79;37.51;94576.41;5012451;28;7898;-57
2024/01/10 00:41:32;;;;;;;;;;;;;;;24.81;37.08;94574.66;5005222;28;7257;-57
2024/01/10 00:43:59;;;;;;;;;;;;;;;24.82;37.88;94578.16;4995275;28;9500;-58
2024/01/10 00:46:30;;;;;;;;;;;;;;;24.79;37.92;94568.16;4986518;28;9312;-57
2024/01/10 00:48:57;;;;;;;;;;;;;;;24.79;37.73;94577.16;4993718;28;9528;-57
2024/01/10 00:51:44;;;;;;;;;;;;;;;24.79;37.17;94577.16;4988206;28;7997;-57
2024/01/10 00:54:15;;;;;;;;;;;;;;;24.81;37.94;94579.41;5012652;28;7633;-57
2024/01/10 00:56:52;;;;;;;;;;;;;;;24.79;37.27;94574.41;4991962;28;9181;-57
2024/01/10 00:59:26;;;;;;;;;;;;;;;24.81;37.74;94580.16;5002161;28;9201;-57
2024/01/10 01:01:53;;;;;;;;;;;;;;;24.81;37.62;94579.41;4996633;28;7235;-57
2024/01/10 01:04:20;;;;;;;;;;;;;;;24.80;37.18;94573.16;4992497;28;9056;-57
2024/01/10 01:06:51;;;;;;;;;;;;;;;24.78;36.76;94575.66;4986336;28;7701;-57
2024/01/10 01:09:29;;;;;;;;;;;;;;;24.80;36.86;94580.66;5018321;28;7290;-57
2024/01/10 01:11:55;;;;;;;;;;;;;;;24.78;37.14;94574.91;5008630;28;7236;-57
2024/01/10 01:14:21;;;;;;;;;;;;;;;24.79;36.88;94582.66;5000172;28;8985;-57
2024/01/10 01:16:53;;;;;;;;;;;;;;;24.78;36.85;94586.66;4982980;28;9044;-57
2024/01/10 01:19:19;;;;;;;;;;;;;;;24.79;37.73;94584.66;4999512;28;7173;-57
2024/01/10 01:21:45;;;;;;;;;;;;;;;24.80;37.32;94594.41;4985934;28;7417;-57
2024/01/10 01:24:13;;;;;;;;;;;;;;;24.79;37.66;94592.91;4997317;28;7146;-57
2024/01/10 01:26:39;;;;;;;;;;;;;;;24.81;37.28;94590.41;4996874;28;7871;-57
2024/01/10 01:29:08;;;;;;;;;;;;;;;24.81;36.62;94595.91;4992610;28;9422;-57
2024/01/10 01:31:34;;;;;;;;;;;;;;;24.78;37.54;94597.66;4991381;28;9454;-57
2024/01/10 01:34:00;;;;;;;;;;;;;;;24.77;36.81;94595.41;4994893;28;7202;-57
2024/01/10 01:36:27;;;;;;;;;;;;;;;24.77;36.89;94598.19;4991025;28;7237;-57
2024/01/10 01:38:53;;;;;;;;;;;;;;;24.78;37.85;94608.66;4998687;28;7258;-57
2024/01/10 01:41:19;;;;;;;;;;;;;;;24.79;37.41;94603.94;5003002;28;7257;-57
2024/01/10 01:43:45;;;;;;;;;;;;;;;24.79;37.00;94603.94;4996657;28;9667;-57
2024/01/10 01:46:11;;;;;;;;;;;;;;;24.79;37.34;94601.94;5012347;28;8813;-39
2024/01/10 01:48:38;;;;;;;;;;;;;;;24.79;37.10;94590.94;4996307;28;7333;-38
2024/01/10 01:51:07;;;;;;;;;;;;;;;24.80;37.02;94599.91;4993706;28;7058;-38
2024/01/10 01:53:37;;;;;;;;;;;;;;;24.79;36.73;94603.94;4989147;28;6987;-39
2024/01/10 01:56:09;;;;;;;;;;;;;;;24.77;37.32;94593.44;5007601;28;8632;-38
2024/01/10 01:59:04;;;;;;;;;;;;;;;24.80;36.70;94599.91;4996056;28;9042;-38
2024/01/10 02:01:31;;;;;;;;;;;;;;;24.79;37.47;94592.91;4992169;28;7278;-38
2024/01/10 02:04:25;;;;;;;;;;;;;;;24.78;37.56;94594.16;4987028;28;7222;-39
2024/01/10 02:06:54;;;;;;;;;;;;;;;24.77;37.24;94584.41;4995938;28;9056;-38
2024/01/10 02:09:32;;;;;;;;;;;;;;;24.76;36.98;94580.16;4994064;28;9560;-38
2024/01/10 02:11:58;;;;;;;;;;;;;;;24.79;36.64;94587.41;5002078;28;8921;-38
2024/01/10 02:14:38;;;;;;;;;;;;;;;24.77;36.60;94581.66;5021277;28;9246;-38
2024/01/10 02:17:05;;;;;;;;;;;;;;;24.79;36.86;94590.16;5003421;28;7177;-38
2024/01/10 02:19:34;;;;;;;;;;;;;;;24.79;37.25;94592.91;4995030;28;7234;-39
2024/01/10 02:22:07;;;;;;;;;;;;;;;24.78;37.20;94585.91;4991727;28;9209;-39
2024/01/10 02:24:35;;;;;;;;;;;;;;;24.78;36.57;94585.91;4993415;28;7560;-39
2024/01/10 02:27:02;;;;;;;;;;;;;;;24.78;36.94;94585.91;4990414;28;7196;-39
2024/01/10 02:29:29;;;;;;;;;;;;;;;24.75;37.44;94586.91;5012562;28;7405;-39
2024/01/10 02:32:00;;;;;;;;;;;;;;;24.78;36.96;94580.41;4993683;28;7310;-39
2024/01/10 02:34:36;;;;;;;;;;;;;;;24.78;37.16;94581.16;4995398;28;7149;-38
2024/01/10 02:37:14;;;;;;;;;;;;;;;24.78;37.24;94583.16;4997049;28;7138;-38
2024/01/10 02:39:45;;;;;;;;;;;;;;;24.78;37.12;94585.91;4998559;28;7011;-39
2024/01/10 02:42:12;;;;;;;;;;;;;;;24.75;36.59;94578.66;4999857;28;7211;-39
2024/01/10 02:44:59;;;;;;;;;;;;;;;24.79;36.71;94587.41;5000110;28;7217;-38
2024/01/10 02:47:25;;;;;;;;;;;;;;;24.77;36.80;94582.44;4985872;28;7205;-38
2024/01/10 02:49:55;;;;;;;;;;;;;;;24.76;37.29;94586.41;5019690;28;9209;-39
2024/01/10 02:52:21;;;;;;;;;;;;;;;24.75;36.66;94581.41;4992604;28;7587;-38
2024/01/10 02:54:49;;;;;;;;;;;;;;;24.75;36.85;94586.91;5015078;28;7232;-38
2024/01/10 02:57:24;;;;;;;;;;;;;;;24.76;36.58;94591.16;4996297;28;7027;-36
2024/01/10 02:59:52;;;;;;;;;;;;;;;24.76;36.48;94593.91;4995192;28;7175;-37
2024/01/10 03:02:23;;;;;;;;;;;;;;;24.75;37.43;94586.91;5000691;28;7258;-37
2024/01/10 03:05:05;;;;;;;;;;;;;;;24.74;37.26;94588.88;5018677;28;7078;-37
2024/01/10 03:07:38;;;;;;;;;;;;;;;24.75;36.72;94593.16;5013540;28;8771;-36
2024/01/10 03:10:33;;;;;;;;;;;;;;;24.75;36.62;94586.91;4998006;28;7069;-37
2024/01/10 03:13:14;;;;;;;;;;;;;;;24.74;37.02;94586.13;4950963;28;7242;-37
2024/01/10 03:15:53;;;;;;;;;;;;;;;24.76;37.10;94585.66;4954447;28;9025;-37
2024/01/10 03:18:20;;;;;;;;;;;;;;;24.77;36.82;94589.91;4943939;28;8842;-37
2024/01/10 03:20:48;;;;;;;;;;;;;;;24.75;36.57;94581.41;4949484;28;9414;-37
2024/01/10 03:23:14;;;;;;;;;;;;;;;24.75;36.66;94579.41;4941822;28;7256;-37
2024/01/10 03:25:40;;;;;;;;;;;;;;;24.76;36.57;94586.41;4945157;28;7572;-37
2024/01/10 03:28:06;;;;;;;;;;;;;;;24.73;37.04;94588.13;4948470;28;7107;-37
2024/01/10 03:30:32;;;;;;;;;;;;;;;24.75;37.26;94592.44;4952590;28;8647;-37
2024/01/10 03:33:32;;;;;;;;;;;;;;;24.74;37.14;94588.88;4950437;28;9041;-37
2024/01/10 03:36:23;;;;;;;;;;;;;;;24.73;36.47;94590.88;4950205;28;6862;-37
2024/01/10 03:39:17;;;;;;;;;;;;;;;24.74;36.35;94599.88;4938248;28;8558;-37
2024/01/10 03:41:43;;;;;;;;;;;;;;;24.74;37.21;94594.38;4946848;28;7220;-37
2024/01/10 03:44:20;;;;;;;;;;;;;;;24.77;36.89;94598.19;4930325;28;7684;-37
2024/01/10 03:46:59;;;;;;;;;;;;;;;24.78;37.11;94597.66;4937538;28;7208;-37
2024/01/10 03:49:27;;;;;;;;;;;;;;;24.78;36.88;94594.16;4972915;28;9080;-37
2024/01/10 03:51:53;;;;;;;;;;;;;;;24.79;36.59;94595.66;5003557;28;9216;-37
2024/01/10 03:54:19;;;;;;;;;;;;;;;24.77;36.74;94592.66;4998190;28;9066;-37
2024/01/10 03:56:48;;;;;;;;;;;;;;;24.73;36.31;94588.13;4997556;28;7301;-37
2024/01/10 03:59:13;;;;;;;;;;;;;;;24.77;36.18;94600.94;4998509;28;9063;-37
2024/01/10 04:01:42;;;;;;;;;;;;;;;24.77;37.13;94601.69;4982857;28;7234;-37
2024/01/10 04:04:08;;;;;;;;;;;;;;;24.76;36.45;94599.41;4994704;28;7050;-37
2024/01/10 04:06:36;;;;;;;;;;;;;;;24.77;36.64;94595.41;4994203;28;9112;-39
2024/01/10 04:09:02;;;;;;;;;;;;;;;24.76;36.89;94593.91;5015477;28;7510;-38
2024/01/10 04:11:38;;;;;;;;;;;;;;;24.76;36.50;94599.41;5023173;28;9048;-38
2024/01/10 04:14:15;;;;;;;;;;;;;;;24.75;36.86;94597.94;4990118;28;9078;-38
2024/01/10 04:16:42;;;;;;;;;;;;;;;24.75;36.53;94600.69;4990006;28;9072;-38
2024/01/10 04:19:13;;;;;;;;;;;;;;;24.75;37.13;94600.69;5002535;28;7203;-38
2024/01/10 04:21:50;;;;;;;;;;;;;;;24.71;36.74;94596.13;5007697;28;8554;-40
2024/01/10 04:24:25;;;;;;;;;;;;;;;24.75;36.49;94597.94;5008693;28;7078;-38
2024/01/10 04:26:53;;;;;;;;;;;;;;;24.71;36.68;94596.13;5017422;28;7151;-38
2024/01/10 04:29:23;;;;;;;;;;;;;;;24.74;37.12;94605.38;5012986;28;8364;-38
2024/01/10 04:31:52;;;;;;;;;;;;;;;24.73;36.29;94601.88;5003997;28;7251;-41
2024/01/10 04:34:18;;;;;;;;;;;;;;;24.74;36.22;94605.38;5018897;28;6985;-39
2024/01/10 04:36:45;;;;;;;;;;;;;;;24.74;36.42;94602.63;5005622;28;7046;-39
2024/01/10 04:39:21;;;;;;;;;;;;;;;24.73;36.38;94603.88;4994436;28;9091;-38
2024/01/10 04:41:48;;;;;;;;;;;;;;;24.73;36.48;94597.66;4980476;28;10120;-38
2024/01/10 04:44:15;;;;;;;;;;;;;;;24.72;37.09;94602.38;4998924;28;7866;-39
2024/01/10 04:46:43;;;;;;;;;;;;;;;24.71;37.00;94604.38;4989986;28;8210;-38
2024/01/10 04:49:23;;;;;;;;;;;;;;;24.71;36.48;94590.63;4998315;28;7054;-40
2024/01/10 04:51:55;;;;;;;;;;;;;;;24.73;36.76;94597.66;4982272;28;9106;-38
2024/01/10 04:54:21;;;;;;;;;;;;;;;24.71;36.20;94603.63;4994434;28;7561;-39
2024/01/10 04:56:47;;;;;;;;;;;;;;;24.70;36.20;94597.41;4983251;28;7266;-38
2024/01/10 04:59:13;;;;;;;;;;;;;;;24.71;37.04;94598.88;4992832;28;7230;-38
2024/01/10 05:01:47;;;;;;;;;;;;;;;24.69;36.94;94601.38;4990296;28;9078;-38
2024/01/10 05:04:28;;;;;;;;;;;;;;;24.71;37.09;94603.63;4990697;28;9551;-39
2024/01/10 05:07:24;;;;;;;;;;;;;;;24.71;36.10;94598.88;4983964;28;6997;-38
2024/01/10 05:09:53;;;;;;;;;;;;;;;24.70;36.73;94605.66;4934179;29;8824;-39
2024/01/10 05:12:55;;;;;;;;;;;;;;;24.70;37.09;94602.16;4917606;29;7241;-38
2024/01/10 05:15:21;;;;;;;;;;;;;;;24.69;36.48;94606.13;4898570;29;7257;-36
2024/01/10 05:17:56;;;;;;;;;;;;;;;24.67;36.04;94598.38;4875464;29;6990;-35
2024/01/10 05:20:35;;;;;;;;;;;;;;;24.71;36.44;94604.38;4894599;29;7073;-36
2024/01/10 05:23:11;;;;;;;;;;;;;;;24.73;36.80;94603.16;4878163;29;9123;-36
2024/01/10 05:25:37;;;;;;;;;;;;;;;24.71;36.98;94606.38;4896602;29;6963;-57
2024/01/10 05:28:04;;;;;;;;;;;;;;;24.71;36.99;94604.38;4879303;29;9395;-58
2024/01/10 05:30:37;;;;;;;;;;;;;;;24.73;36.72;94610.13;4887660;29;7093;-57
2024/01/10 05:33:21;;;;;;;;;;;;;;;24.75;36.42;94611.69;4888272;29;7121;-57
2024/01/10 05:35:47;;;;;;;;;;;;;;;24.73;36.38;94609.38;4874649;29;7043;-37
2024/01/10 05:38:13;;;;;;;;;;;;;;;24.73;36.59;94615.63;4889006;29;7214;-36
2024/01/10 05:40:39;;;;;;;;;;;;;;;24.79;36.79;94618.44;4891987;29;8306;-36
2024/01/10 05:43:07;;;;;;;;;;;;;;;24.78;36.51;94616.91;4872791;29;9149;-36
2024/01/10 05:45:33;;;;;;;;;;;;;;;24.73;36.74;94615.63;4903682;28;7162;-37
2024/01/10 05:48:01;;;;;;;;;;;;;;;24.74;37.11;94619.16;4957145;28;9090;-36
2024/01/10 05:50:27;;;;;;;;;;;;;;;24.73;36.76;94615.63;4989665;28;8658;-36
2024/01/10 05:52:55;;;;;;;;;;;;;;;24.75;36.12;94617.91;4994062;28;8727;-37
2024/01/10 05:55:26;;;;;;;;;;;;;;;24.76;36.29;94621.41;5006034;28;7268;-37
2024/01/10 05:58:08;;;;;;;;;;;;;;;24.75;36.11;94628.19;4991477;28;6978;-36
2024/01/10 06:00:36;;;;;;;;;;;;;;;24.78;36.72;94621.66;4992031;28;7248;-36
2024/01/10 06:03:04;;;;;;;;;;;;;;;24.86;36.68;94625.44;4992192;28;7056;-36
2024/01/10 06:05:33;;;;;;;;;;;;;;;24.88;35.98;94640.16;4993064;28;9173;-36
2024/01/10 06:08:06;;;;;;;;;;;;;;;24.89;36.64;94638.19;5016883;28;7221;-36
2024/01/10 06:10:34;;;;;;;;;;;;;;;24.92;36.19;94629.69;4980931;28;7439;-36
2024/01/10 06:13:03;;;;;;;;;;;;;;;24.96;36.15;94634.94;5005263;28;9045;-36
2024/01/10 06:15:31;;;;;;;;;;;;;;;24.96;35.65;94634.94;4986650;28;7218;-36
2024/01/10 06:18:16;;;;;;;;;;;;;;;24.94;36.02;94629.94;4993892;28;9613;-36
2024/01/10 06:21:00;;;;;;;;;;;;;;;24.98;35.78;94622.19;4995750;28;9101;-37
2024/01/10 06:23:28;;;;;;;;;;;;;;;25.00;35.93;94627.94;5005849;28;7112;-36
2024/01/10 06:25:54;;;;;;;;;;;;;;;25.00;35.83;94625.19;4989414;28;7001;-36
2024/01/10 06:28:26;;;;;;;;;;;;;;;24.98;35.85;94618.66;5014067;28;9455;-36
2024/01/10 06:30:56;;;;;;;;;;;;;;;25.01;36.36;94620.44;4996222;28;9055;-36
2024/01/10 06:33:22;;;;;;;;;;;;;;;25.00;35.47;94619.66;5012440;28;9034;-36
2024/01/10 06:35:48;;;;;;;;;;;;;;;24.98;35.54;94618.66;5003170;28;7236;-36
2024/01/10 06:38:24;;;;;;;;;;;;;;;24.96;35.38;94623.94;4992265;28;8531;-36
2024/01/10 06:41:06;;;;;;;;;;;;;;;24.97;35.85;94628.19;4997465;28;7234;-36
2024/01/10 06:43:38;;;;;;;;;;;;;;;24.98;36.18;94622.19;4982656;28;7235;-37
2024/01/10 06:46:36;;;;;;;;;;;;;;;25.00;36.26;94619.66;4997441;28;7265;-35
2024/01/10 06:49:02;;;;;;;;;;;;;;;24.99;36.34;94625.69;4972621;28;6967;-35
2024/01/10 06:51:29;;;;;;;;;;;;;;;24.97;36.19;94625.44;4948466;28;9507;-35
2024/01/10 06:54:02;;;;;;;;;;;;;;;24.97;36.86;94630.94;4974982;28;7132;-35
2024/01/10 06:56:28;;;;;;;;;;;;;;;24.99;36.72;94631.19;4961954;28;9226;-35
2024/01/10 06:58:56;;;;;;;;;;;;;;;24.99;36.89;94629.16;4968284;28;7785;-35
2024/01/10 07:01:23;;;;;;;;;;;;;;;24.98;36.40;94626.94;4970783;28;7356;-35
2024/01/10 07:04:08;;;;;;;;;;;;;;;24.98;36.41;94632.44;4941941;28;7405;-36
2024/01/10 07:06:50;;;;;;;;;;;;;;;24.98;36.74;94632.44;4974188;28;7004;-35
2024/01/10 07:09:19;;;;;;;;;;;;;;;24.97;37.13;94630.94;4965101;28;7197;-35
2024/01/10 07:11:55;;;;;;;;;;;;;;;24.98;36.61;94637.94;4954949;28;7199;-36
2024/01/10 07:14:23;;;;;;;;;;;;;;;24.98;36.67;94635.19;4956329;28;7255;-35
2024/01/10 07:16:59;;;;;;;;;;;;;;;24.99;37.27;94640.19;4953751;28;7135;-36
2024/01/10 07:19:34;;;;;;;;;;;;;;;24.99;36.71;94639.44;4960847;28;7774;-36
2024/01/10 07:22:01;;;;;;;;;;;;;;;25.00;37.25;94640.94;4953730;28;9148;-36
2024/01/10 07:24:35;;;;;;;;;;;;;;;25.02;36.66;94644.69;4982162;28;9165;-35
2024/01/10 07:27:08;;;;;;;;;;;;;;;25.03;36.79;94648.19;5005052;28;7301;-35
2024/01/10 07:29:43;;;;;;;;;;;;;;;25.04;36.21;94657.94;4995875;28;7239;-36
2024/01/10 07:32:19;;;;;;;;;;;;;;;25.04;36.36;94647.69;4992021;28;7425;-36
2024/01/10 07:35:04;;;;;;;;;;;;;;;25.05;37.17;94651.19;4982041;28;8864;-37
2024/01/10 07:37:43;;;;;;;;;;;;;;;25.04;36.36;94657.94;4993617;28;8806;-36
2024/01/10 07:40:13;;;;;;;;;;;;;;;25.04;36.87;94661.44;4989986;28;7270;-37
2024/01/10 07:43:11;;;;;;;;;;;;;;;25.01;36.75;94664.47;4995089;28;7414;-37
2024/01/10 07:45:41;;;;;;;;;;;;;;;24.99;36.48;94655.97;4953378;28;7322;-36
2024/01/10 07:48:27;;;;;;;;;;;;;;;25.06;36.30;94664.44;4952005;28;6952;-36
2024/01/10 07:51:06;;;;;;;;;;;;;;;25.02;36.94;94660.44;4945137;28;7279;-36
2024/01/10 07:53:34;;;;;;;;;;;;;;;25.04;36.90;94668.94;4952469;28;7493;-37
2024/01/10 07:56:30;;;;;;;;;;;;;;;25.05;36.49;94673.22;4945171;28;9258;-39
2024/01/10 07:58:57;;;;;;;;;;;;;;;25.05;36.34;94678.72;4953791;28;7308;-39
2024/01/10 08:01:30;;;;;;;;;;;;;;;25.07;36.56;94676.22;4942299;28;7073;-40
2024/01/10 08:03:56;;;;;;;;;;;;;;;25.06;36.59;94675.47;4951648;28;7079;-40
2024/01/10 08:06:24;;;;;;;;;;;;;;;25.05;36.65;94676.72;4950531;28;7345;-40
2024/01/10 08:08:52;;;;;;;;;;;;;;;25.00;36.83;94676.72;4951778;28;7254;-40
2024/01/10 08:11:34;;;;;;;;;;;;;;;25.01;36.98;94673.44;4948237;28;8256;-41
2024/01/10 08:14:06;;;;;;;;;;;;;;;25.01;36.43;94675.47;4944805;28;6990;-39
2024/01/10 08:16:36;;;;;;;;;;;;;;;25.01;37.12;94680.97;4949833;28;9171;-40
2024/01/10 08:19:02;;;;;;;;;;;;;;;25.00;37.22;94674.72;4949794;28;7283;-39
2024/01/10 08:21:32;;;;;;;;;;;;;;;25.02;36.50;94679.72;4969216;28;9074;-40
2024/01/10 08:24:01;;;;;;;;;;;;;;;25.00;37.37;94684.97;5002411;28;9104;-39
2024/01/10 08:26:28;;;;;;;;;;;;;;;24.98;37.45;94679.97;4987791;28;7296;-39
2024/01/10 08:28:55;;;;;;;;;;;;;;;24.99;37.28;94677.97;4991764;28;9229;-39
2024/01/10 08:31:29;;;;;;;;;;;;;;;24.95;36.92;94682.94;4994959;28;8703;-39
2024/01/10 08:34:05;;;;;;;;;;;;;;;24.92;37.02;94683.97;5001445;28;9069;-39
2024/01/10 08:36:33;;;;;;;;;;;;;;;24.91;36.36;94685.97;4992125;28;9499;-39
2024/01/10 08:38:59;;;;;;;;;;;;;;;24.95;36.67;94691.19;4990546;28;9029;-40
2024/01/10 08:41:26;;;;;;;;;;;;;;;24.92;37.17;94687.47;4982365;28;9021;-39
2024/01/10 08:43:59;;;;;;;;;;;;;;;24.85;36.37;94684.44;4989446;28;6986;-39
2024/01/10 08:46:26;;;;;;;;;;;;;;;24.91;37.14;94688.72;4998163;28;9528;-39
2024/01/10 08:48:53;;;;;;;;;;;;;;;24.94;36.77;94692.47;4994893;28;7388;-39
2024/01/10 08:51:19;;;;;;;;;;;;;;;24.90;37.05;94697.47;4986147;28;8384;-39
2024/01/10 08:53:45;;;;;;;;;;;;;;;24.90;37.28;94689.22;4980700;28;7318;-39
2024/01/10 08:56:21;;;;;;;;;;;;;;;24.95;37.15;94693.94;4989667;28;9063;-40
2024/01/10 08:58:52;;;;;;;;;;;;;;;24.96;36.81;94700.97;4991113;28;7243;-39
2024/01/10 09:01:28;;;;;;;;;;;;;;;24.93;37.03;94701.97;4988563;28;7247;-39
2024/01/10 09:04:09;;;;;;;;;;;;;;;24.94;36.90;94706.22;4988405;28;7539;-41
2024/01/10 09:06:38;;;;;;;;;;;;;;;24.96;36.77;94717.47;4990613;28;9169;-57
2024/01/10 09:09:04;;;;;;;;;;;;;;;24.95;37.02;94718.72;5002138;28;9456;-57
2024/01/10 09:11:33;;;;;;;;;;;;;;;24.95;36.92;94715.97;4996681;28;7228;-56
2024/01/10 09:14:01;;;;;;;;;;;;;;;24.95;36.35;94710.47;4994027;28;9523;-57
2024/01/10 09:16:33;;;;;;;;;;;;;;;24.90;36.38;94713.97;4989084;28;9072;-57
2024/01/10 09:19:15;;;;;;;;;;;;;;;24.90;36.54;94722.22;4996745;28;9076;-57
2024/01/10 09:21:54;;;;;;;;;;;;;;;24.84;37.14;94722.22;5003224;28;8949;-57
2024/01/10 09:24:30;;;;;;;;;;;;;;;24.87;37.13;94726.72;4991452;28;8010;-57
2024/01/10 09:27:03;;;;;;;;;;;;;;;24.86;36.38;94735.50;4996543;28;7470;-57
2024/01/10 09:29:36;;;;;;;;;;;;;;;24.82;37.25;94723.94;4988941;28;8562;-57
2024/01/10 09:32:03;;;;;;;;;;;;;;;24.81;36.71;94723.22;5000362;28;9417;-57
2024/01/10 09:34:34;;;;;;;;;;;;;;;24.82;36.47;94724.72;4992692;28;9466;-57
2024/01/10 09:37:19;;;;;;;;;;;;;;;24.86;37.10;94730.72;4988486;28;7150;-57
2024/01/10 09:39:52;;;;;;;;;;;;;;;24.81;36.47;94728.72;4965333;28;6994;-57
2024/01/10 09:42:20;;;;;;;;;;;;;;;24.82;37.41;94735.72;4973890;28;6981;-57
2024/01/10 09:44:47;;;;;;;;;;;;;;;24.83;36.38;94734.47;4975403;28;7192;-57
2024/01/10 09:47:15;;;;;;;;;;;;;;;24.83;36.60;94728.97;5000092;28;7086;-57
2024/01/10 09:49:41;;;;;;;;;;;;;;;24.88;37.06;94733.72;4988939;28;7259;-57
2024/01/10 09:52:10;;;;;;;;;;;;;;;24.84;37.42;94729.72;4999905;28;7247;-57
2024/01/10 09:54:42;;;;;;;;;;;;;;;24.90;37.03;94742.25;4985702;28;7273;-56
2024/01/10 09:57:23;;;;;;;;;;;;;;;24.86;36.90;94741.00;4986320;28;7383;-56
2024/01/10 09:59:54;;;;;;;;;;;;;;;24.86;37.46;94733.47;5001196;28;7613;-56
2024/01/10 10:02:25;;;;;;;;;;;;;;;24.85;37.11;94736.72;4996780;28;9127;-57
2024/01/10 10:05:18;;;;;;;;;;;;;;;24.92;37.37;94741.75;4988857;28;9184;-57
2024/01/10 10:07:57;;;;;;;;;;;;;;;24.93;36.86;94743.22;4986767;28;9030;-56
2024/01/10 10:10:32;;;;;;;;;;;;;;;24.87;37.35;94736.97;4976993;28;7148;-57
2024/01/10 10:13:02;;;;;;;;;;;;;;;24.89;37.18;94739.97;4990854;28;6990;-56
2024/01/10 10:15:29;;;;;;;;;;;;;;;24.89;37.38;94739.97;4996079;28;7375;-37
2024/01/10 10:17:55;;;;;;;;;;;;;;;24.93;37.01;94743.22;4991084;28;7062;-37
2024/01/10 10:20:25;;;;;;;;;;;;;;;24.97;36.74;94735.50;4987765;28;7046;-37
2024/01/10 10:23:06;;;;;;;;;;;;;;;24.99;36.67;94730.97;4988285;28;7021;-38
2024/01/10 10:25:34;;;;;;;;;;;;;;;25.01;36.59;94727.75;4996661;28;7248;-37
2024/01/10 10:28:03;;;;;;;;;;;;;;;25.02;36.41;94732.75;4998834;28;8450;-37
2024/01/10 10:30:33;;;;;;;;;;;;;;;24.95;37.02;94721.47;4998829;28;9048;-37
2024/01/10 10:33:02;;;;;;;;;;;;;;;24.93;36.73;94732.22;4994402;28;7108;-37
2024/01/10 10:35:30;;;;;;;;;;;;;;;24.95;36.10;94727.72;5007430;28;7073;-38
2024/01/10 10:38:05;;;;;;;;;;;;;;;24.99;37.13;94727.50;4989189;28;7534;-37
2024/01/10 10:40:38;;;;;;;;;;;;;;;24.98;36.65;94731.50;4986015;28;6995;-37
2024/01/10 10:43:18;;;;;;;;;;;;;;;24.98;36.26;94735.00;4987967;28;9083;-38
2024/01/10 10:45:49;;;;;;;;;;;;;;;24.95;36.50;94724.22;5007161;28;8853;-38
2024/01/10 10:48:32;;;;;;;;;;;;;;;24.91;37.27;94731.97;4990661;28;7169;-37
2024/01/10 10:51:38;;;;;;;;;;;;;;;24.91;37.17;94729.22;4983394;28;7068;-37
2024/01/10 10:54:04;;;;;;;;;;;;;;;24.87;37.18;94740.47;4992361;28;7900;-37
2024/01/10 10:56:36;;;;;;;;;;;;;;;24.86;37.00;94738.25;5006162;28;7064;-37
2024/01/10 10:59:06;;;;;;;;;;;;;;;24.88;37.20;94741.25;5006013;28;7270;-37
2024/01/10 11:02:06;;;;;;;;;;;;;;;24.84;37.30;94738.72;4993116;28;7269;-37
2024/01/10 11:04:48;;;;;;;;;;;;;;;24.81;37.32;94728.72;4975645;28;7073;-37
2024/01/10 11:07:15;;;;;;;;;;;;;;;24.81;38.03;94723.22;4971110;28;7396;-37
2024/01/10 11:09:50;;;;;;;;;;;;;;;24.78;37.58;94713.19;4970156;28;7013;-38
2024/01/10 11:12:44;;;;;;;;;;;;;;;24.80;37.67;94716.19;4969946;28;7355;-37
2024/01/10 11:15:31;;;;;;;;;;;;;;;24.79;37.82;94714.72;4974315;28;7390;-37
2024/01/10 11:18:22;;;;;;;;;;;;;;;24.80;37.79;94716.19;4970367;28;7183;-38
2024/01/10 11:21:01;;;;;;;;;;;;;;;24.86;38.21;94716.97;4954260;28;7195;-37
2024/01/10 11:23:48;;;;;;;;;;;;;;;24.84;37.87;94705.69;4970422;28;7233;-38
2024/01/10 11:26:24;;;;;;;;;;;;;;;24.91;37.49;94715.47;4956105;28;9360;-43
2024/01/10 11:28:50;;;;;;;;;;;;;;;24.91;37.25;94713.47;4960807;28;9171;-42
2024/01/10 11:31:31;;;;;;;;;;;;;;;24.94;37.04;94708.97;4969336;28;9466;-41
2024/01/10 11:34:06;;;;;;;;;;;;;;;25.00;36.83;94709.72;4972152;28;6976;-41
2024/01/10 11:36:33;;;;;;;;;;;;;;;24.98;37.79;94709.47;4967545;28;7919;-42
2024/01/10 11:39:05;;;;;;;;;;;;;;;24.96;37.34;94707.22;4974294;28;9900;-43
2024/01/10 11:41:37;;;;;;;;;;;;;;;24.99;37.60;94694.47;4994735;28;6981;-41
2024/01/10 11:44:18;;;;;;;;;;;;;;;25.00;37.05;94704.22;4986835;28;9747;-41
2024/01/10 11:46:48;;;;;;;;;;;;;;;25.03;37.61;94697.72;4998871;28;7242;-42
2024/01/10 11:49:21;;;;;;;;;;;;;;;25.04;37.78;94701.97;5000492;28;7235;-43
2024/01/10 11:51:54;;;;;;;;;;;;;;;25.03;37.31;94692.22;4993645;28;9428;-42
2024/01/10 11:54:47;;;;;;;;;;;;;;;25.05;37.21;94697.97;5004870;28;7082;-42
2024/01/10 11:57:35;;;;;;;;;;;;;;;24.99;36.92;94683.47;4992521;28;8718;-41
2024/01/10 12:00:08;;;;;;;;;;;;;;;25.06;37.43;94688.47;5003300;28;8766;-41
2024/01/10 12:02:35;;;;;;;;;;;;;;;25.06;36.81;94682.94;5001183;28;9318;-41
2024/01/10 12:05:01;;;;;;;;;;;;;;;25.07;36.91;94687.22;4988995;28;7229;-42
2024/01/10 12:07:29;;;;;;;;;;;;;;;25.04;36.72;94688.22;4988906;28;7331;-41
2024/01/10 12:09:55;;;;;;;;;;;;;;;25.02;36.86;94682.47;5003161;28;9134;-42
2024/01/10 12:12:21;;;;;;;;;;;;;;;25.07;37.32;94690.72;5008950;28;9165;-43
2024/01/10 12:14:51;;;;;;;;;;;;;;;25.06;37.01;94691.22;4982012;28;9135;-41
2024/01/10 12:17:18;;;;;;;;;;;;;;;25.05;37.35;94697.97;4992774;28;7258;-42
2024/01/10 12:20:15;;;;;;;;;;;;;;;25.05;36.86;94697.97;4989525;28;6992;-40
2024/01/10 12:22:43;;;;;;;;;;;;;;;25.08;37.62;94694.22;4947154;28;7470;-40
2024/01/10 12:25:09;;;;;;;;;;;;;;;25.07;37.54;94695.47;4968300;28;7670;-40
2024/01/10 12:27:35;;;;;;;;;;;;;;;25.09;37.17;94695.72;4968100;28;7613;-41
2024/01/10 12:30:05;;;;;;;;;;;;;;;25.09;37.14;94703.97;4937226;28;7315;-41
2024/01/10 12:32:31;;;;;;;;;;;;;;;25.08;37.36;94696.97;4952566;28;9261;-41
2024/01/10 12:35:08;;;;;;;;;;;;;;;25.08;37.04;94700.47;4955066;28;7537;-43
2024/01/10 12:37:54;;;;;;;;;;;;;;;25.04;36.79;94690.97;4965949;28;7266;-36
2024/01/10 12:40:28;;;;;;;;;;;;;;;25.10;37.34;94688.97;4952125;28;6874;-36
2024/01/10 12:43:06;;;;;;;;;;;;;;;25.09;37.24;94687.47;4972115;28;7349;-36
2024/01/10 12:45:47;;;;;;;;;;;;;;;25.09;36.69;94684.72;4954979;28;7216;-36
2024/01/10 12:48:17;;;;;;;;;;;;;;;25.05;37.09;94689.72;4954710;28;7826;-36
2024/01/10 12:50:46;;;;;;;;;;;;;;;25.04;36.87;94690.97;4961777;28;9200;-36
2024/01/10 12:53:12;;;;;;;;;;;;;;;25.04;37.51;94688.22;4968727;28;7096;-36
2024/01/10 12:55:48;;;;;;;;;;;;;;;25.06;37.56;94682.94;4952805;28;7344;-36
2024/01/10 12:58:16;;;;;;;;;;;;;;;25.06;37.84;94688.47;4972375;28;9137;-36
2024/01/10 13:00:42;;;;;;;;;;;;;;;25.03;37.59;94692.22;5007738;28;9025;-36
2024/01/10 13:03:10;;;;;;;;;;;;;;;24.99;37.88;94691.72;5001690;28;7174;-36
2024/01/10 13:06:06;;;;;;;;;;;;;;;24.99;38.15;94695.22;4984981;28;9775;-36
2024/01/10 13:08:42;;;;;;;;;;;;;;;24.99;37.08;94686.97;4956845;28;7220;-36
2024/01/10 13:11:20;;;;;;;;;;;;;;;25.00;37.59;94691.22;4952721;28;7265;-37
2024/01/10 13:14:12;;;;;;;;;;;;;;;25.03;37.42;94692.22;4951637;28;7175;-36
2024/01/10 13:16:48;;;;;;;;;;;;;;;24.99;37.12;94694.47;4945719;29;7952;-36
2024/01/10 13:19:15;;;;;;;;;;;;;;;24.96;38.04;94695.47;4950003;28;7262;-36
2024/01/10 13:21:41;;;;;;;;;;;;;;;24.97;37.69;94703.22;4946306;28;9360;-36
2024/01/10 13:24:07;;;;;;;;;;;;;;;24.94;37.56;94697.97;4947479;28;9391;-37
2024/01/10 13:26:48;;;;;;;;;;;;;;;24.92;38.07;94694.97;4933734;29;9059;-36